Myrtle Beach, SC

4:01 PM EDT on September 01, 2014 (GMT -0400)
Green Lake | Change Station
CLOSE
Current Station
Personal Weather Station
Location: Myrtle Beach, SC
Elevation: 39 ft
Nearby Weather Stations

Elev 39 ft 33.78 °N, 78.78 °W | Updated 7 seconds ago

Clear
Clear
84.2 °F
Feels Like 95 °F
N
2.9
Wind Variable Wind from SW
Gusts 9.0 mph

Today
High -- | Low -- °F
--% Chance of Precip.
Yesterday
High -- | Low -- °F
Precip. -- in
6:49 AM 7:40 PM
Waxing Crescent, 43% visible
Pressure 30.07 in
Visibility 10.0 miles
Clouds Clear
Heat Index 95 °F
Dew Point 78 °F
Humidity 81%
Rainfall 0.00 in
Snow Depth Not available.
UV 0.9 out of 12
Pollen 8.70 out of 12
Air Quality Not available.
Flu Activity Not available.
METAR KCRE 011953Z 18012KT 10SM CLR 31/24 A3006 RMK AO2 SLP181 T03060244

More Conditions Fewer Conditions

Pressure 30.07 in
Visibility 10.0 miles
Clouds Clear
Heat Index 95 °F
Dew Point 78 °F
Humidity 81%
Rainfall 0.00 in
Snow Depth Not available.
UV 0.9 out of 12
Pollen 8.70 out of 12
Air Quality Not available.
Flu Activity Not available.
METAR KCRE 011953Z 18012KT 10SM CLR 31/24 A3006 RMK AO2 SLP181 T03060244

More Conditions Fewer Conditions

10-Day Weather Forecast

Almanac

Astronomy

Sep. 01, 2014 Rise Set
Actual Time 6:49 AM EDT 7:40 PM EDT
Civil Twilight 6:23 AM EDT 8:06 PM EDT
Nautical Twilight 5:53 AM EDT 8:36 PM EDT
Astronomical Twilight 5:22 AM EDT 9:07 PM EDT
Moon 1:13 PM EDT 11:59 PM EDT
Length of Visible Light 13h 42m
Length of Day
12h 51m
Tomorrow will be 2m 1s shorter.
Waxing Crescent, 43% of the Moon is Illuminated
Today
Waxing Crescent
Sep 2
First Quarter
Sep 8
Full
Sep 15
Last Quarter
Sep 24
New

Today's Extremes

State Highs State Lows

Community

WunderPhotos

Upload Photos

1,749,394 photos uploaded!

WunderBlogs® & News

Nearby

Snow Depth

Station Depth Elevation
No new snow has been reported.

Earthquake Activity

City Distance Mag. Time & Date
No recent earthquake activity has been reported nearby.
Minimum magnitude displayed is 2.5.

Coastal Water Temperatures

Place Temperature
Springmaid Pier, SC 84.0 °F

Nearby Weather Stations